sensor_id;sensor_type;location;lat;lon;timestamp;P1;durP1;ratioP1;P2;durP2;ratioP2
10246;SDS011;5168;47.854;7.944;2024-01-06T00:01:01;6.50;;;2.43;;
10246;SDS011;5168;47.854;7.944;2024-01-06T00:03:27;3.57;;;2.27;;
10246;SDS011;5168;47.854;7.944;2024-01-06T00:05:53;2.40;;;2.20;;
10246;SDS011;5168;47.854;7.944;2024-01-06T00:08:18;3.43;;;2.10;;
10246;SDS011;5168;47.854;7.944;2024-01-06T00:10:44;2.20;;;1.87;;
10246;SDS011;5168;47.854;7.944;2024-01-06T00:13:10;5.10;;;2.17;;
10246;SDS011;5168;47.854;7.944;2024-01-06T00:15:35;6.30;;;3.87;;
10246;SDS011;5168;47.854;7.944;2024-01-06T00:18:01;5.17;;;4.17;;
10246;SDS011;5168;47.854;7.944;2024-01-06T00:20:27;3.27;;;2.97;;
10246;SDS011;5168;47.854;7.944;2024-01-06T00:22:52;2.80;;;2.23;;
10246;SDS011;5168;47.854;7.944;2024-01-06T00:25:18;4.47;;;2.43;;
10246;SDS011;5168;47.854;7.944;2024-01-06T00:27:44;2.47;;;2.27;;
10246;SDS011;5168;47.854;7.944;2024-01-06T00:30:10;4.17;;;2.40;;
10246;SDS011;5168;47.854;7.944;2024-01-06T00:32:36;2.67;;;2.40;;
10246;SDS011;5168;47.854;7.944;2024-01-06T00:35:01;3.10;;;2.90;;
10246;SDS011;5168;47.854;7.944;2024-01-06T00:37:27;3.90;;;2.83;;
10246;SDS011;5168;47.854;7.944;2024-01-06T00:39:53;5.10;;;3.00;;
10246;SDS011;5168;47.854;7.944;2024-01-06T00:42:19;3.20;;;2.90;;
10246;SDS011;5168;47.854;7.944;2024-01-06T00:44:45;3.00;;;2.80;;
10246;SDS011;5168;47.854;7.944;2024-01-06T00:47:10;3.47;;;2.60;;
10246;SDS011;5168;47.854;7.944;2024-01-06T00:49:36;2.60;;;2.37;;
10246;SDS011;5168;47.854;7.944;2024-01-06T00:52:02;2.60;;;2.40;;
10246;SDS011;5168;47.854;7.944;2024-01-06T00:54:28;2.93;;;2.47;;
10246;SDS011;5168;47.854;7.944;2024-01-06T00:56:54;2.90;;;2.40;;
10246;SDS011;5168;47.854;7.944;2024-01-06T00:59:19;4.90;;;2.40;;
10246;SDS011;5168;47.854;7.944;2024-01-06T01:01:45;3.33;;;2.40;;
10246;SDS011;5168;47.854;7.944;2024-01-06T01:04:11;3.23;;;2.53;;
10246;SDS011;5168;47.854;7.944;2024-01-06T01:06:37;4.50;;;2.80;;
10246;SDS011;5168;47.854;7.944;2024-01-06T01:09:03;2.87;;;2.53;;
10246;SDS011;5168;47.854;7.944;2024-01-06T01:11:29;4.27;;;2.50;;
10246;SDS011;5168;47.854;7.944;2024-01-06T01:13:55;3.40;;;2.40;;
10246;SDS011;5168;47.854;7.944;2024-01-06T01:16:21;2.30;;;2.03;;
10246;SDS011;5168;47.854;7.944;2024-01-06T01:18:47;2.33;;;2.07;;
10246;SDS011;5168;47.854;7.944;2024-01-06T01:21:13;2.70;;;2.00;;
10246;SDS011;5168;47.854;7.944;2024-01-06T01:23:39;2.27;;;2.17;;
10246;SDS011;5168;47.854;7.944;2024-01-06T01:26:05;3.37;;;2.30;;
10246;SDS011;5168;47.854;7.944;2024-01-06T01:28:31;3.83;;;2.40;;
10246;SDS011;5168;47.854;7.944;2024-01-06T01:30:57;2.83;;;2.47;;
10246;SDS011;5168;47.854;7.944;2024-01-06T01:33:24;2.70;;;2.37;;
10246;SDS011;5168;47.854;7.944;2024-01-06T01:35:50;2.20;;;2.10;;
10246;SDS011;5168;47.854;7.944;2024-01-06T01:38:16;2.83;;;2.60;;
10246;SDS011;5168;47.854;7.944;2024-01-06T01:40:42;2.47;;;2.20;;
10246;SDS011;5168;47.854;7.944;2024-01-06T01:43:15;2.20;;;2.10;;
10246;SDS011;5168;47.854;7.944;2024-01-06T01:45:41;3.50;;;2.43;;
10246;SDS011;5168;47.854;7.944;2024-01-06T01:48:07;3.17;;;2.20;;
10246;SDS011;5168;47.854;7.944;2024-01-06T01:50:33;2.60;;;2.27;;
10246;SDS011;5168;47.854;7.944;2024-01-06T01:52:59;2.50;;;2.30;;
10246;SDS011;5168;47.854;7.944;2024-01-06T01:55:24;2.70;;;2.50;;
10246;SDS011;5168;47.854;7.944;2024-01-06T01:57:50;2.40;;;2.20;;
10246;SDS011;5168;47.854;7.944;2024-01-06T02:00:17;3.47;;;2.40;;
10246;SDS011;5168;47.854;7.944;2024-01-06T02:02:43;3.40;;;2.60;;
10246;SDS011;5168;47.854;7.944;2024-01-06T02:05:09;5.63;;;2.37;;
10246;SDS011;5168;47.854;7.944;2024-01-06T02:07:35;2.97;;;2.30;;
10246;SDS011;5168;47.854;7.944;2024-01-06T02:10:01;3.33;;;2.17;;
10246;SDS011;5168;47.854;7.944;2024-01-06T02:12:26;2.50;;;2.30;;
10246;SDS011;5168;47.854;7.944;2024-01-06T02:14:52;2.57;;;2.00;;
10246;SDS011;5168;47.854;7.944;2024-01-06T02:17:17;3.20;;;2.40;;
10246;SDS011;5168;47.854;7.944;2024-01-06T02:19:43;3.30;;;2.40;;
10246;SDS011;5168;47.854;7.944;2024-01-06T02:22:09;4.13;;;2.90;;
10246;SDS011;5168;47.854;7.944;2024-01-06T02:24:35;4.63;;;2.90;;
10246;SDS011;5168;47.854;7.944;2024-01-06T02:27:01;2.90;;;2.67;;
10246;SDS011;5168;47.854;7.944;2024-01-06T02:29:26;2.80;;;2.60;;
10246;SDS011;5168;47.854;7.944;2024-01-06T02:31:52;2.70;;;2.50;;
10246;SDS011;5168;47.854;7.944;2024-01-06T02:34:17;2.60;;;2.40;;
10246;SDS011;5168;47.854;7.944;2024-01-06T02:36:43;3.43;;;2.50;;
10246;SDS011;5168;47.854;7.944;2024-01-06T02:39:09;3.13;;;2.53;;
10246;SDS011;5168;47.854;7.944;2024-01-06T02:41:34;3.83;;;2.70;;
10246;SDS011;5168;47.854;7.944;2024-01-06T02:44:00;3.47;;;2.63;;
10246;SDS011;5168;47.854;7.944;2024-01-06T02:46:27;3.50;;;2.20;;
10246;SDS011;5168;47.854;7.944;2024-01-06T02:48:53;4.73;;;2.20;;
10246;SDS011;5168;47.854;7.944;2024-01-06T02:51:18;2.63;;;2.27;;
10246;SDS011;5168;47.854;7.944;2024-01-06T02:53:44;3.60;;;2.37;;
10246;SDS011;5168;47.854;7.944;2024-01-06T02:56:10;3.10;;;2.63;;
10246;SDS011;5168;47.854;7.944;2024-01-06T02:58:36;4.17;;;2.43;;
10246;SDS011;5168;47.854;7.944;2024-01-06T03:01:02;3.27;;;2.40;;
10246;SDS011;5168;47.854;7.944;2024-01-06T03:03:28;2.50;;;2.30;;
10246;SDS011;5168;47.854;7.944;2024-01-06T03:05:54;3.60;;;2.40;;
10246;SDS011;5168;47.854;7.944;2024-01-06T03:08:19;3.60;;;2.60;;
10246;SDS011;5168;47.854;7.944;2024-01-06T03:10:45;2.70;;;2.50;;
10246;SDS011;5168;47.854;7.944;2024-01-06T03:13:10;2.87;;;2.33;;
10246;SDS011;5168;47.854;7.944;2024-01-06T03:15:36;3.43;;;2.43;;
10246;SDS011;5168;47.854;7.944;2024-01-06T03:18:02;2.63;;;2.30;;
10246;SDS011;5168;47.854;7.944;2024-01-06T03:20:28;3.53;;;2.30;;
10246;SDS011;5168;47.854;7.944;2024-01-06T03:22:53;2.23;;;2.10;;
10246;SDS011;5168;47.854;7.944;2024-01-06T03:25:19;2.50;;;2.30;;
10246;SDS011;5168;47.854;7.944;2024-01-06T03:27:44;2.20;;;2.00;;
10246;SDS011;5168;47.854;7.944;2024-01-06T03:30:10;4.80;;;2.20;;
10246;SDS011;5168;47.854;7.944;2024-01-06T03:32:36;4.07;;;2.80;;
10246;SDS011;5168;47.854;7.944;2024-01-06T03:35:02;3.70;;;2.20;;
10246;SDS011;5168;47.854;7.944;2024-01-06T03:37:28;2.10;;;2.00;;
10246;SDS011;5168;47.854;7.944;2024-01-06T03:39:54;7.53;;;2.40;;
10246;SDS011;5168;47.854;7.944;2024-01-06T03:42:20;6.20;;;2.50;;
10246;SDS011;5168;47.854;7.944;2024-01-06T03:44:45;3.63;;;2.50;;
10246;SDS011;5168;47.854;7.944;2024-01-06T03:47:11;4.23;;;2.27;;
10246;SDS011;5168;47.854;7.944;2024-01-06T03:49:37;5.03;;;2.33;;
10246;SDS011;5168;47.854;7.944;2024-01-06T03:52:02;2.50;;;2.30;;
10246;SDS011;5168;47.854;7.944;2024-01-06T03:54:28;2.80;;;2.23;;
10246;SDS011;5168;47.854;7.944;2024-01-06T03:56:53;2.10;;;2.00;;
10246;SDS011;5168;47.854;7.944;2024-01-06T03:59:19;2.60;;;2.30;;
10246;SDS011;5168;47.854;7.944;2024-01-06T04:01:45;2.97;;;2.20;;
10246;SDS011;5168;47.854;7.944;2024-01-06T04:04:11;3.03;;;2.17;;
10246;SDS011;5168;47.854;7.944;2024-01-06T04:06:36;5.50;;;2.77;;
10246;SDS011;5168;47.854;7.944;2024-01-06T04:09:02;3.10;;;2.20;;
10246;SDS011;5168;47.854;7.944;2024-01-06T04:11:28;3.37;;;2.30;;
10246;SDS011;5168;47.854;7.944;2024-01-06T04:13:54;4.23;;;2.70;;
10246;SDS011;5168;47.854;7.944;2024-01-06T04:16:20;2.93;;;2.40;;
10246;SDS011;5168;47.854;7.944;2024-01-06T04:18:45;4.03;;;2.13;;
10246;SDS011;5168;47.854;7.944;2024-01-06T04:21:11;2.67;;;2.30;;
10246;SDS011;5168;47.854;7.944;2024-01-06T04:23:37;1.90;;;1.80;;
10246;SDS011;5168;47.854;7.944;2024-01-06T04:26:03;2.40;;;2.20;;
10246;SDS011;5168;47.854;7.944;2024-01-06T04:28:29;2.63;;;2.30;;
10246;SDS011;5168;47.854;7.944;2024-01-06T04:30:55;3.00;;;2.00;;
10246;SDS011;5168;47.854;7.944;2024-01-06T04:33:21;3.67;;;2.30;;
10246;SDS011;5168;47.854;7.944;2024-01-06T04:35:47;4.00;;;2.10;;
10246;SDS011;5168;47.854;7.944;2024-01-06T04:38:15;2.40;;;2.20;;
10246;SDS011;5168;47.854;7.944;2024-01-06T04:40:40;3.70;;;2.30;;
10246;SDS011;5168;47.854;7.944;2024-01-06T04:43:06;4.00;;;2.13;;
10246;SDS011;5168;47.854;7.944;2024-01-06T04:45:32;3.70;;;2.30;;
10246;SDS011;5168;47.854;7.944;2024-01-06T04:47:57;3.17;;;2.40;;
10246;SDS011;5168;47.854;7.944;2024-01-06T04:50:23;2.43;;;2.20;;
10246;SDS011;5168;47.854;7.944;2024-01-06T04:52:49;3.30;;;2.33;;
10246;SDS011;5168;47.854;7.944;2024-01-06T04:55:15;1.90;;;1.80;;
10246;SDS011;5168;47.854;7.944;2024-01-06T04:57:41;2.50;;;2.30;;
10246;SDS011;5168;47.854;7.944;2024-01-06T05:00:07;2.27;;;2.07;;
10246;SDS011;5168;47.854;7.944;2024-01-06T05:02:33;3.30;;;2.30;;
10246;SDS011;5168;47.854;7.944;2024-01-06T05:04:59;3.63;;;2.30;;
10246;SDS011;5168;47.854;7.944;2024-01-06T05:07:24;2.33;;;2.20;;
10246;SDS011;5168;47.854;7.944;2024-01-06T05:09:50;3.00;;;2.10;;
10246;SDS011;5168;47.854;7.944;2024-01-06T05:12:16;2.40;;;2.20;;
10246;SDS011;5168;47.854;7.944;2024-01-06T05:14:42;2.17;;;1.97;;
10246;SDS011;5168;47.854;7.944;2024-01-06T05:17:08;2.30;;;2.10;;
10246;SDS011;5168;47.854;7.944;2024-01-06T05:19:34;3.70;;;2.03;;
10246;SDS011;5168;47.854;7.944;2024-01-06T05:22:00;2.40;;;2.20;;
10246;SDS011;5168;47.854;7.944;2024-01-06T05:24:26;4.33;;;2.40;;
10246;SDS011;5168;47.854;7.944;2024-01-06T05:26:51;2.63;;;2.17;;
10246;SDS011;5168;47.854;7.944;2024-01-06T05:29:17;2.27;;;2.07;;
10246;SDS011;5168;47.854;7.944;2024-01-06T05:31:43;3.37;;;2.43;;
10246;SDS011;5168;47.854;7.944;2024-01-06T05:34:11;3.90;;;2.13;;
10246;SDS011;5168;47.854;7.944;2024-01-06T05:36:36;2.30;;;2.10;;
10246;SDS011;5168;47.854;7.944;2024-01-06T05:39:02;3.07;;;2.13;;
10246;SDS011;5168;47.854;7.944;2024-01-06T05:41:28;2.83;;;2.40;;
10246;SDS011;5168;47.854;7.944;2024-01-06T05:43:54;2.40;;;2.20;;
10246;SDS011;5168;47.854;7.944;2024-01-06T05:46:24;2.40;;;2.20;;
10246;SDS011;5168;47.854;7.944;2024-01-06T05:48:49;2.50;;;2.30;;
10246;SDS011;5168;47.854;7.944;2024-01-06T05:51:16;2.47;;;2.20;;
10246;SDS011;5168;47.854;7.944;2024-01-06T05:53:41;3.80;;;2.27;;
10246;SDS011;5168;47.854;7.944;2024-01-06T05:56:07;3.33;;;2.13;;
10246;SDS011;5168;47.854;7.944;2024-01-06T05:58:34;3.23;;;2.77;;
10246;SDS011;5168;47.854;7.944;2024-01-06T06:00:59;6.27;;;2.67;;
10246;SDS011;5168;47.854;7.944;2024-01-06T06:03:25;3.03;;;2.30;;
10246;SDS011;5168;47.854;7.944;2024-01-06T06:05:51;3.57;;;2.27;;
10246;SDS011;5168;47.854;7.944;2024-01-06T06:08:17;3.60;;;2.20;;
10246;SDS011;5168;47.854;7.944;2024-01-06T06:10:43;2.30;;;2.10;;
10246;SDS011;5168;47.854;7.944;2024-01-06T06:13:35;3.67;;;2.27;;
10246;SDS011;5168;47.854;7.944;2024-01-06T06:16:02;2.20;;;2.00;;
10246;SDS011;5168;47.854;7.944;2024-01-06T06:18:28;2.53;;;2.00;;
10246;SDS011;5168;47.854;7.944;2024-01-06T06:20:53;2.67;;;2.10;;
10246;SDS011;5168;47.854;7.944;2024-01-06T06:23:19;3.43;;;2.30;;
10246;SDS011;5168;47.854;7.944;2024-01-06T06:25:45;3.33;;;2.30;;
10246;SDS011;5168;47.854;7.944;2024-01-06T06:28:11;3.47;;;2.17;;
10246;SDS011;5168;47.854;7.944;2024-01-06T06:30:37;3.13;;;2.20;;
10246;SDS011;5168;47.854;7.944;2024-01-06T06:33:02;2.60;;;2.00;;
10246;SDS011;5168;47.854;7.944;2024-01-06T06:35:28;2.20;;;2.10;;
10246;SDS011;5168;47.854;7.944;2024-01-06T06:37:54;2.20;;;2.00;;
10246;SDS011;5168;47.854;7.944;2024-01-06T06:40:19;2.67;;;2.17;;
10246;SDS011;5168;47.854;7.944;2024-01-06T06:42:45;2.83;;;2.20;;
10246;SDS011;5168;47.854;7.944;2024-01-06T06:45:10;3.33;;;2.30;;
10246;SDS011;5168;47.854;7.944;2024-01-06T06:47:36;3.80;;;2.20;;
10246;SDS011;5168;47.854;7.944;2024-01-06T06:50:02;3.67;;;2.20;;
10246;SDS011;5168;47.854;7.944;2024-01-06T06:52:28;5.97;;;2.60;;
10246;SDS011;5168;47.854;7.944;2024-01-06T06:54:54;3.17;;;2.60;;
10246;SDS011;5168;47.854;7.944;2024-01-06T06:57:20;3.33;;;2.27;;
10246;SDS011;5168;47.854;7.944;2024-01-06T06:59:46;3.93;;;2.97;;
10246;SDS011;5168;47.854;7.944;2024-01-06T07:02:12;2.40;;;1.83;;
10246;SDS011;5168;47.854;7.944;2024-01-06T07:04:37;2.73;;;2.30;;
10246;SDS011;5168;47.854;7.944;2024-01-06T07:07:03;4.00;;;2.30;;
10246;SDS011;5168;47.854;7.944;2024-01-06T07:09:28;2.77;;;2.40;;
10246;SDS011;5168;47.854;7.944;2024-01-06T07:11:54;2.50;;;2.23;;
10246;SDS011;5168;47.854;7.944;2024-01-06T07:14:19;2.67;;;2.17;;
10246;SDS011;5168;47.854;7.944;2024-01-06T07:16:45;5.67;;;2.30;;
10246;SDS011;5168;47.854;7.944;2024-01-06T07:19:11;2.40;;;2.20;;
10246;SDS011;5168;47.854;7.944;2024-01-06T07:21:37;5.87;;;2.67;;
10246;SDS011;5168;47.854;7.944;2024-01-06T07:24:03;4.70;;;2.23;;
10246;SDS011;5168;47.854;7.944;2024-01-06T07:26:28;2.33;;;2.20;;
10246;SDS011;5168;47.854;7.944;2024-01-06T07:28:54;3.50;;;2.50;;
10246;SDS011;5168;47.854;7.944;2024-01-06T07:31:20;2.07;;;1.93;;
10246;SDS011;5168;47.854;7.944;2024-01-06T07:33:46;2.40;;;2.10;;
10246;SDS011;5168;47.854;7.944;2024-01-06T07:36:12;4.03;;;2.23;;
10246;SDS011;5168;47.854;7.944;2024-01-06T07:38:37;3.20;;;2.50;;
10246;SDS011;5168;47.854;7.944;2024-01-06T07:41:03;2.27;;;2.03;;
10246;SDS011;5168;47.854;7.944;2024-01-06T07:43:31;2.37;;;2.20;;
10246;SDS011;5168;47.854;7.944;2024-01-06T07:45:57;2.83;;;2.03;;
10246;SDS011;5168;47.854;7.944;2024-01-06T07:48:23;2.10;;;1.90;;
10246;SDS011;5168;47.854;7.944;2024-01-06T07:50:49;2.53;;;2.33;;
10246;SDS011;5168;47.854;7.944;2024-01-06T07:53:15;4.83;;;2.30;;
10246;SDS011;5168;47.854;7.944;2024-01-06T07:55:41;3.10;;;2.50;;
10246;SDS011;5168;47.854;7.944;2024-01-06T07:58:07;2.77;;;2.43;;
10246;SDS011;5168;47.854;7.944;2024-01-06T08:00:33;2.87;;;2.60;;
10246;SDS011;5168;47.854;7.944;2024-01-06T08:02:58;2.30;;;2.10;;
10246;SDS011;5168;47.854;7.944;2024-01-06T08:05:25;2.10;;;1.90;;
10246;SDS011;5168;47.854;7.944;2024-01-06T08:07:51;2.50;;;2.23;;
10246;SDS011;5168;47.854;7.944;2024-01-06T08:10:16;2.20;;;2.00;;
10246;SDS011;5168;47.854;7.944;2024-01-06T08:12:42;2.50;;;2.30;;
10246;SDS011;5168;47.854;7.944;2024-01-06T08:15:08;2.27;;;2.17;;
10246;SDS011;5168;47.854;7.944;2024-01-06T08:17:34;2.53;;;2.03;;
10246;SDS011;5168;47.854;7.944;2024-01-06T08:20:00;2.13;;;2.03;;
10246;SDS011;5168;47.854;7.944;2024-01-06T08:22:26;2.17;;;2.03;;
10246;SDS011;5168;47.854;7.944;2024-01-06T08:24:52;2.50;;;2.30;;
10246;SDS011;5168;47.854;7.944;2024-01-06T08:27:18;2.90;;;2.60;;
10246;SDS011;5168;47.854;7.944;2024-01-06T08:29:44;2.40;;;2.20;;
10246;SDS011;5168;47.854;7.944;2024-01-06T08:32:09;2.70;;;2.37;;
10246;SDS011;5168;47.854;7.944;2024-01-06T08:34:36;3.23;;;2.93;;
10246;SDS011;5168;47.854;7.944;2024-01-06T08:37:01;11.60;;;7.40;;
10246;SDS011;5168;47.854;7.944;2024-01-06T08:39:28;8.07;;;5.83;;
10246;SDS011;5168;47.854;7.944;2024-01-06T08:41:54;9.40;;;6.90;;
10246;SDS011;5168;47.854;7.944;2024-01-06T08:44:20;8.97;;;7.40;;
10246;SDS011;5168;47.854;7.944;2024-01-06T08:46:45;7.70;;;6.57;;
10246;SDS011;5168;47.854;7.944;2024-01-06T08:49:11;5.77;;;5.13;;
10246;SDS011;5168;47.854;7.944;2024-01-06T08:51:37;7.23;;;5.37;;
10246;SDS011;5168;47.854;7.944;2024-01-06T08:54:03;5.83;;;5.23;;
10246;SDS011;5168;47.854;7.944;2024-01-06T08:56:30;4.93;;;4.43;;
10246;SDS011;5168;47.854;7.944;2024-01-06T08:58:56;4.63;;;3.30;;
10246;SDS011;5168;47.854;7.944;2024-01-06T09:01:22;2.97;;;2.77;;
10246;SDS011;5168;47.854;7.944;2024-01-06T09:03:48;2.47;;;2.30;;
10246;SDS011;5168;47.854;7.944;2024-01-06T09:06:15;2.70;;;2.50;;
10246;SDS011;5168;47.854;7.944;2024-01-06T09:08:40;4.60;;;2.67;;
10246;SDS011;5168;47.854;7.944;2024-01-06T09:11:06;3.27;;;2.57;;
10246;SDS011;5168;47.854;7.944;2024-01-06T09:13:32;2.60;;;2.40;;
10246;SDS011;5168;47.854;7.944;2024-01-06T09:15:58;2.50;;;2.30;;
10246;SDS011;5168;47.854;7.944;2024-01-06T09:18:25;2.70;;;2.50;;
10246;SDS011;5168;47.854;7.944;2024-01-06T09:20:51;2.50;;;2.30;;
10246;SDS011;5168;47.854;7.944;2024-01-06T09:23:17;2.40;;;2.20;;
10246;SDS011;5168;47.854;7.944;2024-01-06T09:25:43;2.83;;;2.60;;
10246;SDS011;5168;47.854;7.944;2024-01-06T09:28:09;2.87;;;2.50;;
10246;SDS011;5168;47.854;7.944;2024-01-06T09:30:35;4.13;;;3.07;;
10246;SDS011;5168;47.854;7.944;2024-01-06T09:33:02;3.90;;;2.60;;
10246;SDS011;5168;47.854;7.944;2024-01-06T09:35:27;3.57;;;2.70;;
10246;SDS011;5168;47.854;7.944;2024-01-06T09:37:53;3.53;;;2.50;;
10246;SDS011;5168;47.854;7.944;2024-01-06T09:40:21;2.87;;;2.40;;
10246;SDS011;5168;47.854;7.944;2024-01-06T09:42:48;2.87;;;2.67;;
10246;SDS011;5168;47.854;7.944;2024-01-06T09:45:14;4.90;;;2.60;;
10246;SDS011;5168;47.854;7.944;2024-01-06T09:47:40;3.27;;;2.63;;
10246;SDS011;5168;47.854;7.944;2024-01-06T09:50:09;3.50;;;2.80;;
10246;SDS011;5168;47.854;7.944;2024-01-06T09:52:41;2.80;;;2.43;;
10246;SDS011;5168;47.854;7.944;2024-01-06T09:55:10;2.50;;;2.30;;
10246;SDS011;5168;47.854;7.944;2024-01-06T09:57:36;2.90;;;2.43;;
10246;SDS011;5168;47.854;7.944;2024-01-06T10:00:02;2.00;;;1.90;;
10246;SDS011;5168;47.854;7.944;2024-01-06T10:02:29;2.93;;;2.70;;
10246;SDS011;5168;47.854;7.944;2024-01-06T10:04:56;2.40;;;2.20;;
10246;SDS011;5168;47.854;7.944;2024-01-06T10:07:23;3.27;;;2.40;;
10246;SDS011;5168;47.854;7.944;2024-01-06T10:09:49;3.53;;;2.30;;
10246;SDS011;5168;47.854;7.944;2024-01-06T10:12:15;2.83;;;2.47;;
10246;SDS011;5168;47.854;7.944;2024-01-06T10:14:41;3.17;;;2.67;;
10246;SDS011;5168;47.854;7.944;2024-01-06T10:17:06;3.80;;;2.30;;
10246;SDS011;5168;47.854;7.944;2024-01-06T10:19:32;2.60;;;2.30;;
10246;SDS011;5168;47.854;7.944;2024-01-06T10:21:59;9.77;;;2.60;;
10246;SDS011;5168;47.854;7.944;2024-01-06T10:24:27;4.03;;;2.20;;
10246;SDS011;5168;47.854;7.944;2024-01-06T10:26:53;2.40;;;2.20;;
10246;SDS011;5168;47.854;7.944;2024-01-06T10:29:19;2.17;;;1.97;;
10246;SDS011;5168;47.854;7.944;2024-01-06T10:31:45;4.13;;;2.03;;
10246;SDS011;5168;47.854;7.944;2024-01-06T10:34:10;3.47;;;2.10;;
10246;SDS011;5168;47.854;7.944;2024-01-06T10:36:36;3.27;;;2.60;;
10246;SDS011;5168;47.854;7.944;2024-01-06T10:39:02;4.27;;;2.67;;
10246;SDS011;5168;47.854;7.944;2024-01-06T10:41:28;3.33;;;2.40;;
10246;SDS011;5168;47.854;7.944;2024-01-06T10:43:55;2.93;;;2.20;;
10246;SDS011;5168;47.854;7.944;2024-01-06T10:46:23;2.33;;;2.00;;
10246;SDS011;5168;47.854;7.944;2024-01-06T10:48:50;2.40;;;2.20;;
10246;SDS011;5168;47.854;7.944;2024-01-06T10:51:17;2.40;;;2.20;;
10246;SDS011;5168;47.854;7.944;2024-01-06T10:53:44;2.47;;;2.10;;
10246;SDS011;5168;47.854;7.944;2024-01-06T10:56:10;2.80;;;2.50;;
10246;SDS011;5168;47.854;7.944;2024-01-06T10:58:36;2.20;;;2.10;;
10246;SDS011;5168;47.854;7.944;2024-01-06T11:01:11;3.53;;;2.30;;
10246;SDS011;5168;47.854;7.944;2024-01-06T11:03:37;2.33;;;2.13;;
10246;SDS011;5168;47.854;7.944;2024-01-06T11:06:06;2.47;;;2.27;;
10246;SDS011;5168;47.854;7.944;2024-01-06T11:08:36;3.30;;;2.17;;
10246;SDS011;5168;47.854;7.944;2024-01-06T11:11:15;2.23;;;2.03;;
10246;SDS011;5168;47.854;7.944;2024-01-06T11:13:42;2.47;;;2.20;;
10246;SDS011;5168;47.854;7.944;2024-01-06T11:16:10;2.63;;;2.03;;
10246;SDS011;5168;47.854;7.944;2024-01-06T11:18:39;3.13;;;1.90;;
10246;SDS011;5168;47.854;7.944;2024-01-06T11:26:31;2.43;;;2.10;;
10246;SDS011;5168;47.854;7.944;2024-01-06T11:28:57;2.13;;;2.00;;
10246;SDS011;5168;47.854;7.944;2024-01-06T11:31:28;2.10;;;1.90;;
10246;SDS011;5168;47.854;7.944;2024-01-06T11:33:57;2.23;;;2.03;;
10246;SDS011;5168;47.854;7.944;2024-01-06T11:36:38;2.10;;;2.00;;
10246;SDS011;5168;47.854;7.944;2024-01-06T11:39:05;2.10;;;1.90;;
10246;SDS011;5168;47.854;7.944;2024-01-06T11:41:49;2.40;;;2.20;;
10246;SDS011;5168;47.854;7.944;2024-01-06T11:44:22;2.40;;;2.20;;
10246;SDS011;5168;47.854;7.944;2024-01-06T11:46:48;2.60;;;2.40;;
10246;SDS011;5168;47.854;7.944;2024-01-06T11:49:16;3.10;;;2.07;;
10246;SDS011;5168;47.854;7.944;2024-01-06T11:51:45;3.03;;;2.03;;
10246;SDS011;5168;47.854;7.944;2024-01-06T11:54:11;2.20;;;2.10;;
10246;SDS011;5168;47.854;7.944;2024-01-06T11:56:37;2.40;;;2.20;;
10246;SDS011;5168;47.854;7.944;2024-01-06T11:59:03;2.27;;;2.07;;
10246;SDS011;5168;47.854;7.944;2024-01-06T12:01:38;2.00;;;1.90;;
10246;SDS011;5168;47.854;7.944;2024-01-06T12:04:04;3.50;;;2.03;;
10246;SDS011;5168;47.854;7.944;2024-01-06T12:06:31;2.60;;;2.07;;
10246;SDS011;5168;47.854;7.944;2024-01-06T12:09:12;2.00;;;1.90;;
10246;SDS011;5168;47.854;7.944;2024-01-06T12:11:41;2.20;;;2.10;;
10246;SDS011;5168;47.854;7.944;2024-01-06T12:14:09;2.63;;;2.10;;
10246;SDS011;5168;47.854;7.944;2024-01-06T12:16:34;2.47;;;2.27;;
10246;SDS011;5168;47.854;7.944;2024-01-06T12:19:01;2.20;;;2.00;;
10246;SDS011;5168;47.854;7.944;2024-01-06T12:21:28;2.20;;;2.00;;
10246;SDS011;5168;47.854;7.944;2024-01-06T12:24:10;2.10;;;2.00;;
10246;SDS011;5168;47.854;7.944;2024-01-06T12:26:40;2.83;;;2.63;;
10246;SDS011;5168;47.854;7.944;2024-01-06T12:29:06;3.03;;;2.77;;
10246;SDS011;5168;47.854;7.944;2024-01-06T12:31:32;4.10;;;2.40;;
10246;SDS011;5168;47.854;7.944;2024-01-06T12:33:58;2.27;;;2.17;;
10246;SDS011;5168;47.854;7.944;2024-01-06T12:36:24;2.70;;;2.50;;
10246;SDS011;5168;47.854;7.944;2024-01-06T12:38:50;2.47;;;2.27;;
10246;SDS011;5168;47.854;7.944;2024-01-06T12:41:16;2.60;;;2.40;;
10246;SDS011;5168;47.854;7.944;2024-01-06T12:43:41;2.40;;;2.20;;
10246;SDS011;5168;47.854;7.944;2024-01-06T12:46:07;3.27;;;2.30;;
10246;SDS011;5168;47.854;7.944;2024-01-06T12:48:33;2.50;;;2.30;;
10246;SDS011;5168;47.854;7.944;2024-01-06T12:50:59;2.37;;;2.10;;
10246;SDS011;5168;47.854;7.944;2024-01-06T12:53:25;2.37;;;2.17;;
10246;SDS011;5168;47.854;7.944;2024-01-06T12:55:50;2.20;;;2.10;;
10246;SDS011;5168;47.854;7.944;2024-01-06T12:58:16;2.60;;;2.23;;
10246;SDS011;5168;47.854;7.944;2024-01-06T13:00:42;2.33;;;1.80;;
10246;SDS011;5168;47.854;7.944;2024-01-06T13:03:08;2.23;;;2.13;;
10246;SDS011;5168;47.854;7.944;2024-01-06T13:05:34;2.50;;;2.30;;
10246;SDS011;5168;47.854;7.944;2024-01-06T13:08:00;2.53;;;2.30;;
10246;SDS011;5168;47.854;7.944;2024-01-06T13:10:27;2.23;;;2.13;;
10246;SDS011;5168;47.854;7.944;2024-01-06T13:12:52;2.63;;;2.13;;
10246;SDS011;5168;47.854;7.944;2024-01-06T13:15:18;2.47;;;2.27;;
10246;SDS011;5168;47.854;7.944;2024-01-06T13:17:44;2.30;;;2.20;;
10246;SDS011;5168;47.854;7.944;2024-01-06T13:20:09;2.40;;;2.20;;
10246;SDS011;5168;47.854;7.944;2024-01-06T13:22:35;2.20;;;2.10;;
10246;SDS011;5168;47.854;7.944;2024-01-06T13:25:01;2.53;;;2.33;;
10246;SDS011;5168;47.854;7.944;2024-01-06T13:27:27;2.37;;;2.17;;
10246;SDS011;5168;47.854;7.944;2024-01-06T13:29:53;2.10;;;2.00;;
10246;SDS011;5168;47.854;7.944;2024-01-06T13:32:19;2.20;;;2.10;;
10246;SDS011;5168;47.854;7.944;2024-01-06T13:34:47;2.07;;;1.97;;
10246;SDS011;5168;47.854;7.944;2024-01-06T13:37:12;2.67;;;2.47;;
10246;SDS011;5168;47.854;7.944;2024-01-06T13:39:38;2.50;;;2.30;;
10246;SDS011;5168;47.854;7.944;2024-01-06T13:42:04;2.80;;;2.60;;
10246;SDS011;5168;47.854;7.944;2024-01-06T13:44:30;2.70;;;2.50;;
10246;SDS011;5168;47.854;7.944;2024-01-06T13:46:56;2.70;;;2.50;;
10246;SDS011;5168;47.854;7.944;2024-01-06T13:49:22;2.37;;;2.17;;
10246;SDS011;5168;47.854;7.944;2024-01-06T13:51:52;2.23;;;2.03;;
10246;SDS011;5168;47.854;7.944;2024-01-06T13:54:18;2.10;;;2.00;;
10246;SDS011;5168;47.854;7.944;2024-01-06T13:56:44;2.40;;;2.20;;
10246;SDS011;5168;47.854;7.944;2024-01-06T13:59:11;2.80;;;2.60;;
10246;SDS011;5168;47.854;7.944;2024-01-06T14:01:36;2.50;;;2.30;;
10246;SDS011;5168;47.854;7.944;2024-01-06T14:04:02;3.57;;;3.10;;
10246;SDS011;5168;47.854;7.944;2024-01-06T14:06:30;2.90;;;2.70;;
10246;SDS011;5168;47.854;7.944;2024-01-06T14:08:59;3.27;;;2.73;;
10246;SDS011;5168;47.854;7.944;2024-01-06T14:11:28;3.00;;;2.80;;
10246;SDS011;5168;47.854;7.944;2024-01-06T14:13:57;3.20;;;2.87;;
10246;SDS011;5168;47.854;7.944;2024-01-06T14:16:23;3.20;;;2.90;;
10246;SDS011;5168;47.854;7.944;2024-01-06T14:18:49;3.07;;;2.87;;
10246;SDS011;5168;47.854;7.944;2024-01-06T14:21:14;3.60;;;3.30;;
10246;SDS011;5168;47.854;7.944;2024-01-06T14:23:43;3.40;;;3.10;;
10246;SDS011;5168;47.854;7.944;2024-01-06T14:26:08;3.50;;;3.20;;
10246;SDS011;5168;47.854;7.944;2024-01-06T14:28:35;5.03;;;4.53;;
10246;SDS011;5168;47.854;7.944;2024-01-06T14:31:01;3.87;;;3.57;;
10246;SDS011;5168;47.854;7.944;2024-01-06T14:33:26;4.60;;;4.20;;
10246;SDS011;5168;47.854;7.944;2024-01-06T14:35:52;4.90;;;4.27;;
10246;SDS011;5168;47.854;7.944;2024-01-06T14:38:18;4.03;;;3.63;;
10246;SDS011;5168;47.854;7.944;2024-01-06T14:40:44;3.87;;;3.50;;
10246;SDS011;5168;47.854;7.944;2024-01-06T14:43:10;3.87;;;3.47;;
10246;SDS011;5168;47.854;7.944;2024-01-06T14:45:36;3.67;;;3.40;;
10246;SDS011;5168;47.854;7.944;2024-01-06T14:48:02;4.20;;;3.87;;
10246;SDS011;5168;47.854;7.944;2024-01-06T14:50:27;3.90;;;3.60;;
10246;SDS011;5168;47.854;7.944;2024-01-06T14:52:53;4.10;;;3.80;;
10246;SDS011;5168;47.854;7.944;2024-01-06T14:55:18;4.10;;;3.80;;
10246;SDS011;5168;47.854;7.944;2024-01-06T14:57:44;4.17;;;3.77;;
10246;SDS011;5168;47.854;7.944;2024-01-06T15:00:10;4.57;;;4.17;;